CG Lawrence Lawson — NDOH — position and weather

sailwx.info

Track history (hours):
 
Tides and Currents Weather Stations Pressure Air Temp Water Temp Dewpoint Dewpoint Depression Visibility Wind Speed Wind Dir Waves Ship Positions

CG Lawrence Lawson

Last reported at 2018-May-09 19:31 UTC. Time now 2018-Jun-19 08:23 UTC.
Position N 41°31' W 070°50'.
Warning: this ship's position is 40 days out of date.

Length 46 m; draft 3 m.

Type: Law enforcement. MMSI: 338926420.

Date/timePositionNaut miles runAvg speedWind from/ knotsBaromVisibWave heightAir tempDewpointWater temp
2018-May-09 19:31N 41°31' W 070°50'025.9
2018-May-09 19:30N 41°31' W 070°49'1223.2
2018-May-09 19:00N 41°41' W 070°41'3 6.2
2018-May-09 18:29N 41°43' W 070°38'4 5.7
2018-May-09 17:50N 41°45' W 070°34'3 5.2
2018-May-09 17:17N 41°46' W 070°31'2 8.1
2018-May-09 17:00N 41°47' W 070°28'1 1.3
2018-May-09 16:30N 41°47' W 070°27'1 2.8
2018-May-09 16:00N 41°49' W 070°27'3 7.0
2018-May-09 15:30N 41°51' W 070°23'2 3.6
2018-May-09 15:00N 41°52' W 070°22'4 7.1
2018-May-09 14:30N 41°50' W 070°25'3 5.3
2018-May-09 14:00N 41°48' W 070°27'9 8.0
2018-May-09 12:54N 41°50' W 070°16'3 6.7
2018-May-09 12:30N 41°52' W 070°17'0 0.8
2018-May-09 12:00N 41°52' W 070°17'0 0.8
2018-May-09 11:30N 41°52' W 070°17'1 1.9
2018-May-09 11:00N 41°52' W 070°17'2 3.2
2018-May-09 10:30N 41°53' W 070°17'3 6.7
2018-May-09 10:00N 41°50' W 070°16'1 2.7
2018-May-09 09:30N 41°51' W 070°16'4 7.3
2018-May-09 09:00N 41°55' W 070°18'3 5.6
2018-May-09 08:30N 41°52' W 070°17'3 6.7
2018-May-09 08:00N 41°49' W 070°15'2 3.6
2018-May-09 07:30N 41°48' W 070°13'4 7.5
2018-May-09 07:00N 41°52' W 070°15'3 3.6
2018-May-09 06:11N 41°53' W 070°19'2 6.7
2018-May-09 05:55N 41°52' W 070°18'3 6.8
2018-May-09 05:30N 41°49' W 070°16'2 3.7
2018-May-09 04:59N 41°49' W 070°13'3 7.1
2018-May-09 04:30N 41°52' W 070°15'3 6.9
2018-May-09 04:00N 41°55' W 070°18'3 6.6
2018-May-09 03:30N 41°58' W 070°18'3 6.3
2018-May-09 03:00N 42°02' W 070°18'3 6.1
2018-May-09 02:30N 42°05' W 070°17'3 5.8
2018-May-09 01:59N 42°07' W 070°15'3 5.9
2018-May-09 01:30N 42°10' W 070°13'3 5.7
2018-May-09 01:00N 42°12' W 070°11'3 6.0
2018-May-09 00:30N 42°14' W 070°09'3 6.1
2018-May-08 23:56N 42°17' W 070°06'3 5.9
2018-May-08 23:30N 42°19' W 070°05'3 5.9
2018-May-08 23:00N 42°22' W 070°02'3 6.1
2018-May-08 22:30N 42°24' W 069°60'3 5.9
2018-May-08 22:00N 42°26' W 069°57'3 6.3
2018-May-08 21:30N 42°28' W 069°54'3 6.5
2018-May-08 21:00N 42°30' W 069°50'3 6.7
2018-May-08 20:30N 42°32' W 069°47'5 6.9
2018-May-08 19:50N 42°35' W 069°42'2 7.0
2018-May-08 19:30N 42°37' W 069°39'47 1.0
2018-May-06 19:40N 42°23' W 070°40'213.2
2018-May-06 19:31N 42°23' W 070°43'713.1
2018-May-06 19:00N 42°23' W 070°52'510.3
2018-May-06 18:30N 42°20' W 070°58'4 8.2
2018-May-06 18:00N 42°22' W 071°03'0 0.0
2018-May-04 16:58N 42°22' W 071°03'3 6.0
2018-May-04 16:30N 42°20' W 071°00'3 7.0
2018-May-04 16:01N 42°21' W 070°56'612.5
2018-May-04 15:30N 42°24' W 070°48'612.9
2018-May-04 15:01N 42°29' W 070°43'613.0
2018-May-04 14:31N 42°35' W 070°41'0 0.9
2018-May-04 13:58N 42°36' W 070°40'0 0.1
2018-May-04 13:28N 42°35' W 070°40'0 0.0
2018-May-04 12:58N 42°35' W 070°40'0 0.0
2018-May-04 12:28N 42°35' W 070°40'0 0.0
2018-May-04 11:58N 42°35' W 070°40'0 0.0
2018-May-04 11:28N 42°35' W 070°40'0 0.0
2018-May-04 10:58N 42°35' W 070°40'0 0.0
2018-May-04 10:27N 42°35' W 070°40'0 0.0
2018-May-04 09:57N 42°35' W 070°40'0 0.0
2018-May-04 09:30N 42°35' W 070°40'0 0.0
2018-May-04 09:00N 42°35' W 070°40'0 0.0
2018-May-04 08:30N 42°35' W 070°40'0 0.0
2018-May-04 08:00N 42°35' W 070°40'0 0.0
2018-May-04 07:30N 42°35' W 070°40'0 0.0
2018-May-04 07:00N 42°35' W 070°40'0 0.1
2018-May-04 06:30N 42°35' W 070°40'0 0.0
2018-May-04 06:00N 42°35' W 070°40'0 0.0
2018-May-04 05:28N 42°35' W 070°40'0 0.0
2018-May-04 04:58N 42°35' W 070°40'0 0.1
2018-May-04 04:28N 42°35' W 070°40'0 0.0
2018-May-04 03:58N 42°35' W 070°40'0 0.1
2018-May-04 03:28N 42°36' W 070°40'0 0.0
2018-May-04 02:58N 42°36' W 070°40'0 0.0
2018-May-04 02:25N 42°36' W 070°40'0 0.0
2018-May-04 01:58N 42°36' W 070°40'0 0.0
2018-May-04 01:24N 42°36' W 070°40'0 0.0
2018-May-04 01:00N 42°36' W 070°40'  
2018-Apr-30 22:09N 42°17' W 070°10'310.0
2018-Apr-30 21:54N 42°18' W 070°13'4 9.9
2018-Apr-30 21:30N 42°18' W 070°18'5 9.9
2018-Apr-30 21:00N 42°19' W 070°25'5 9.8
2018-Apr-30 20:30N 42°19' W 070°32'5 9.7
2018-Apr-30 20:00N 42°19' W 070°38'917.0
2018-Apr-30 19:30N 42°22' W 070°49'714.0
2018-Apr-30 19:00N 42°20' W 070°58'  
Track history (hours):
 
Tides and Currents Weather Stations Pressure Air Temp Water Temp Dewpoint Dewpoint Depression Visibility Wind Speed Wind Dir Waves Ship Positions

CG Lawrence Lawson

Last reported at 2018-May-09 19:31 UTC. Time now 2018-Jun-19 08:23 UTC.
Position N 41°31' W 070°50'.
Warning: this ship's position is 40 days out of date.

Length 46 m; draft 3 m.

Type: Law enforcement. MMSI: 338926420.

Date/timePositionNaut miles runAvg speedWind from/ knotsBaromVisibWave heightAir tempDewpointWater temp
2018-May-09 19:31N 41°31' W 070°50'025.9
2018-May-09 19:30N 41°31' W 070°49'1223.2
2018-May-09 19:00N 41°41' W 070°41'3 6.2
2018-May-09 18:29N 41°43' W 070°38'4 5.7
2018-May-09 17:50N 41°45' W 070°34'3 5.2
2018-May-09 17:17N 41°46' W 070°31'2 8.1
2018-May-09 17:00N 41°47' W 070°28'1 1.3
2018-May-09 16:30N 41°47' W 070°27'1 2.8
2018-May-09 16:00N 41°49' W 070°27'3 7.0
2018-May-09 15:30N 41°51' W 070°23'2 3.6
2018-May-09 15:00N 41°52' W 070°22'4 7.1
2018-May-09 14:30N 41°50' W 070°25'3 5.3
2018-May-09 14:00N 41°48' W 070°27'9 8.0
2018-May-09 12:54N 41°50' W 070°16'3 6.7
2018-May-09 12:30N 41°52' W 070°17'0 0.8
2018-May-09 12:00N 41°52' W 070°17'0 0.8
2018-May-09 11:30N 41°52' W 070°17'1 1.9
2018-May-09 11:00N 41°52' W 070°17'2 3.2
2018-May-09 10:30N 41°53' W 070°17'3 6.7
2018-May-09 10:00N 41°50' W 070°16'1 2.7
2018-May-09 09:30N 41°51' W 070°16'4 7.3
2018-May-09 09:00N 41°55' W 070°18'3 5.6
2018-May-09 08:30N 41°52' W 070°17'3 6.7
2018-May-09 08:00N 41°49' W 070°15'2 3.6
2018-May-09 07:30N 41°48' W 070°13'4 7.5
2018-May-09 07:00N 41°52' W 070°15'3 3.6
2018-May-09 06:11N 41°53' W 070°19'2 6.7
2018-May-09 05:55N 41°52' W 070°18'3 6.8
2018-May-09 05:30N 41°49' W 070°16'2 3.7
2018-May-09 04:59N 41°49' W 070°13'3 7.1
2018-May-09 04:30N 41°52' W 070°15'3 6.9
2018-May-09 04:00N 41°55' W 070°18'3 6.6
2018-May-09 03:30N 41°58' W 070°18'3 6.3
2018-May-09 03:00N 42°02' W 070°18'3 6.1
2018-May-09 02:30N 42°05' W 070°17'3 5.8
2018-May-09 01:59N 42°07' W 070°15'3 5.9
2018-May-09 01:30N 42°10' W 070°13'3 5.7
2018-May-09 01:00N 42°12' W 070°11'3 6.0
2018-May-09 00:30N 42°14' W 070°09'3 6.1
2018-May-08 23:56N 42°17' W 070°06'3 5.9
2018-May-08 23:30N 42°19' W 070°05'3 5.9
2018-May-08 23:00N 42°22' W 070°02'3 6.1
2018-May-08 22:30N 42°24' W 069°60'3 5.9
2018-May-08 22:00N 42°26' W 069°57'3 6.3
2018-May-08 21:30N 42°28' W 069°54'3 6.5
2018-May-08 21:00N 42°30' W 069°50'3 6.7
2018-May-08 20:30N 42°32' W 069°47'5 6.9
2018-May-08 19:50N 42°35' W 069°42'2 7.0
2018-May-08 19:30N 42°37' W 069°39'47 1.0
2018-May-06 19:40N 42°23' W 070°40'213.2
2018-May-06 19:31N 42°23' W 070°43'713.1
2018-May-06 19:00N 42°23' W 070°52'510.3
2018-May-06 18:30N 42°20' W 070°58'4 8.2
2018-May-06 18:00N 42°22' W 071°03'0 0.0
2018-May-04 16:58N 42°22' W 071°03'3 6.0
2018-May-04 16:30N 42°20' W 071°00'3 7.0
2018-May-04 16:01N 42°21' W 070°56'612.5
2018-May-04 15:30N 42°24' W 070°48'612.9
2018-May-04 15:01N 42°29' W 070°43'613.0
2018-May-04 14:31N 42°35' W 070°41'0 0.9
2018-May-04 13:58N 42°36' W 070°40'0 0.1
2018-May-04 13:28N 42°35' W 070°40'0 0.0
2018-May-04 12:58N 42°35' W 070°40'0 0.0
2018-May-04 12:28N 42°35' W 070°40'0 0.0
2018-May-04 11:58N 42°35' W 070°40'0 0.0
2018-May-04 11:28N 42°35' W 070°40'0 0.0
2018-May-04 10:58N 42°35' W 070°40'0 0.0
2018-May-04 10:27N 42°35' W 070°40'0 0.0
2018-May-04 09:57N 42°35' W 070°40'0 0.0
2018-May-04 09:30N 42°35' W 070°40'0 0.0
2018-May-04 09:00N 42°35' W 070°40'0 0.0
2018-May-04 08:30N 42°35' W 070°40'0 0.0
2018-May-04 08:00N 42°35' W 070°40'0 0.0
2018-May-04 07:30N 42°35' W 070°40'0 0.0
2018-May-04 07:00N 42°35' W 070°40'0 0.1
2018-May-04 06:30N 42°35' W 070°40'0 0.0
2018-May-04 06:00N 42°35' W 070°40'0 0.0
2018-May-04 05:28N 42°35' W 070°40'0 0.0
2018-May-04 04:58N 42°35' W 070°40'0 0.1
2018-May-04 04:28N 42°35' W 070°40'0 0.0
2018-May-04 03:58N 42°35' W 070°40'0 0.1
2018-May-04 03:28N 42°36' W 070°40'0 0.0
2018-May-04 02:58N 42°36' W 070°40'0 0.0
2018-May-04 02:25N 42°36' W 070°40'0 0.0
2018-May-04 01:58N 42°36' W 070°40'0 0.0
2018-May-04 01:24N 42°36' W 070°40'0 0.0
2018-May-04 01:00N 42°36' W 070°40'  
2018-Apr-30 22:09N 42°17' W 070°10'310.0
2018-Apr-30 21:54N 42°18' W 070°13'4 9.9
2018-Apr-30 21:30N 42°18' W 070°18'5 9.9
2018-Apr-30 21:00N 42°19' W 070°25'5 9.8
2018-Apr-30 20:30N 42°19' W 070°32'5 9.7
2018-Apr-30 20:00N 42°19' W 070°38'917.0
2018-Apr-30 19:30N 42°22' W 070°49'714.0
2018-Apr-30 19:00N 42°20' W 070°58'  

Dump ship's entire track history